Time;durP1;ratioP1;P1;durP2;ratioP2;P2;SDS_P1;SDS_P2;PMS_P1;PMS_P2;Temp;Humidity;BMP_temperature;BMP_pressure;BME280_temperature;BME280_humidity;BME280_pressure;Samples;Min_cycle;Max_cycle;Signal;HPM_P1;HPM_P2
2022/11/07 00:00:12;;;;;;;3.80;1.65;;;9.40;99.90;;;;;;5004740;28;20031;-67
2022/11/07 00:02:37;;;;;;;2.83;1.15;;;9.40;99.90;;;;;;5010863;28;20022;-67
2022/11/07 00:05:03;;;;;;;5.07;1.23;;;9.40;99.90;;;;;;5010739;28;20484;-67
2022/11/07 00:07:29;;;;;;;3.78;1.23;;;9.30;99.90;;;;;;5007283;28;20072;-67
2022/11/07 00:09:55;;;;;;;4.85;1.33;;;9.20;99.90;;;;;;5018808;28;20135;-66
2022/11/07 00:12:20;;;;;;;4.03;1.33;;;9.10;99.90;;;;;;5004359;28;20034;-67
2022/11/07 00:14:46;;;;;;;1.80;1.23;;;8.90;99.90;;;;;;5001237;28;20026;-67
2022/11/07 00:17:12;;;;;;;3.28;1.40;;;8.90;99.90;;;;;;5002412;28;20078;-67
2022/11/07 00:19:37;;;;;;;4.78;1.38;;;8.80;99.90;;;;;;5002206;28;20022;-67
2022/11/07 00:22:03;;;;;;;3.67;1.25;;;8.70;99.90;;;;;;4997584;28;20053;-67
2022/11/07 00:24:28;;;;;;;3.45;1.30;;;8.60;99.90;;;;;;4998471;28;20026;-67
2022/11/07 00:26:54;;;;;;;4.40;1.08;;;8.50;99.90;;;;;;4998817;28;20042;-68
2022/11/07 00:29:20;;;;;;;2.53;1.27;;;8.50;99.90;;;;;;5000361;28;20038;-67
2022/11/07 00:31:46;;;;;;;1.52;1.13;;;8.40;99.90;;;;;;4995319;28;20030;-67
2022/11/07 00:34:12;;;;;;;2.05;1.00;;;8.40;99.90;;;;;;5002112;28;20124;-67
2022/11/07 00:36:37;;;;;;;3.22;1.83;;;8.40;99.90;;;;;;5001204;28;20125;-67
2022/11/07 00:39:04;;;;;;;5.47;1.10;;;8.50;99.90;;;;;;5001818;28;20038;-66
2022/11/07 00:41:29;;;;;;;5.07;1.23;;;8.50;99.90;;;;;;5005131;28;20681;-68
2022/11/07 00:43:55;;;;;;;2.10;1.00;;;8.50;99.90;;;;;;5002735;28;20125;-67
2022/11/07 00:46:21;;;;;;;1.63;0.82;;;8.50;99.90;;;;;;5003205;28;20089;-66
2022/11/07 00:48:47;;;;;;;1.20;0.95;;;8.50;99.90;;;;;;5002458;28;20034;-66
2022/11/07 00:51:20;;;;;;;3.42;0.93;;;8.40;99.90;;;;;;5002467;28;20038;-67
2022/11/07 00:53:47;;;;;;;2.17;1.20;;;8.40;99.90;;;;;;5003054;28;20025;-67
2022/11/07 00:56:15;;;;;;;4.10;1.17;;;8.40;99.90;;;;;;5004908;28;20063;-67
2022/11/07 00:58:41;;;;;;;2.50;1.40;;;8.30;99.90;;;;;;5016743;28;20021;-67
2022/11/07 01:01:13;;;;;;;3.63;1.08;;;8.30;99.90;;;;;;5019762;28;20403;-68
2022/11/07 01:06:25;;;;;;;5.70;1.20;;;8.30;99.90;;;;;;5012309;28;20095;-68
2022/11/07 01:08:53;;;;;;;3.88;1.00;;;8.40;99.90;;;;;;5008979;28;20072;-67
2022/11/07 01:11:19;;;;;;;5.90;1.23;;;8.40;99.90;;;;;;5011246;28;20404;-67
2022/11/07 01:13:44;;;;;;;1.42;1.00;;;8.40;99.90;;;;;;5007221;28;20029;-66
2022/11/07 01:16:10;;;;;;;1.42;0.90;;;8.40;99.90;;;;;;5009788;28;20025;-68
2022/11/07 01:18:37;;;;;;;2.80;1.10;;;8.40;99.90;;;;;;5008912;28;20487;-68
2022/11/07 01:21:05;;;;;;;2.72;1.48;;;8.40;99.90;;;;;;5005331;28;20045;-67
2022/11/07 01:23:30;;;;;;;2.30;1.27;;;8.40;99.90;;;;;;5000609;28;20403;-67
2022/11/07 01:25:56;;;;;;;6.72;2.20;;;8.40;99.90;;;;;;5005520;28;20037;-67
2022/11/07 01:28:21;;;;;;;2.05;0.85;;;8.30;99.90;;;;;;5019110;28;20033;-67
2022/11/07 01:30:47;;;;;;;1.65;0.98;;;8.30;99.90;;;;;;5013803;28;20124;-67
2022/11/07 01:33:13;;;;;;;2.97;1.17;;;8.40;99.90;;;;;;5007146;28;20038;-67
2022/11/07 01:35:39;;;;;;;1.95;1.00;;;8.40;99.90;;;;;;5007584;28;20033;-66
2022/11/07 01:38:05;;;;;;;3.25;0.93;;;8.30;99.90;;;;;;5001322;28;20033;-68
2022/11/07 01:40:32;;;;;;;1.92;1.23;;;8.30;99.90;;;;;;5010805;28;20026;-67
2022/11/07 01:42:58;;;;;;;2.05;1.00;;;8.20;99.90;;;;;;5008285;28;20030;-67
2022/11/07 01:45:27;;;;;;;3.20;1.25;;;8.40;99.90;;;;;;5016309;28;20034;-67
2022/11/07 01:47:56;;;;;;;0.57;0.55;;;8.40;99.90;;;;;;5007962;28;20398;-67
2022/11/07 01:50:22;;;;;;;4.95;1.20;;;8.60;99.90;;;;;;5008503;28;20711;-66
2022/11/07 01:52:49;;;;;;;2.53;1.10;;;8.70;99.90;;;;;;5004826;28;20455;-66
2022/11/07 01:55:32;;;;;;;1.65;0.80;;;8.70;99.90;;;;;;5016404;28;20030;-66
2022/11/07 01:58:04;;;;;;;3.65;0.98;;;8.80;99.90;;;;;;5010440;28;20022;-68
2022/11/07 02:00:32;;;;;;;2.10;1.20;;;8.90;99.90;;;;;;4997048;28;20062;-67
2022/11/07 02:03:02;;;;;;;1.55;0.80;;;8.90;99.90;;;;;;5008242;28;20049;-67
2022/11/07 02:05:35;;;;;;;1.30;0.90;;;8.90;99.90;;;;;;5005360;28;20137;-68
2022/11/07 02:08:05;;;;;;;0.68;0.60;;;8.80;99.90;;;;;;5017506;28;20111;-67
2022/11/07 02:10:33;;;;;;;1.40;0.80;;;8.70;99.90;;;;;;5006232;28;20038;-67
2022/11/07 02:12:59;;;;;;;1.77;0.70;;;8.70;99.90;;;;;;5007540;28;20026;-67
2022/11/07 02:15:25;;;;;;;3.53;0.77;;;8.60;99.90;;;;;;5009405;28;20038;-67
2022/11/07 02:17:52;;;;;;;3.92;1.02;;;8.50;99.90;;;;;;5005551;28;20018;-68
2022/11/07 02:20:17;;;;;;;1.10;0.70;;;8.50;99.90;;;;;;4999964;28;20050;-67
2022/11/07 02:22:49;;;;;;;6.10;0.93;;;8.40;99.90;;;;;;5008160;28;20064;-67
2022/11/07 02:25:17;;;;;;;3.63;0.80;;;8.40;99.90;;;;;;5005629;28;20029;-67
2022/11/07 02:27:44;;;;;;;1.23;0.90;;;8.30;99.90;;;;;;5005309;28;20461;-67
2022/11/07 02:30:18;;;;;;;2.40;1.17;;;8.20;99.90;;;;;;5008798;28;20034;-68
2022/11/07 02:32:43;;;;;;;;;;;8.20;99.90;;;;;;5014093;28;20049;-68
2022/11/07 02:35:38;;;;;;;2.17;0.82;;;8.20;99.90;;;;;;5011786;28;19945;-65
2022/11/07 02:38:29;;;;;;;0.88;0.75;;;8.20;99.90;;;;;;5011813;28;20192;-66
2022/11/07 02:41:28;;;;;;;3.58;1.13;;;8.20;99.90;;;;;;5002710;28;20025;-67
2022/11/07 02:43:58;;;;;;;3.38;2.33;;;8.10;99.90;;;;;;5003816;28;20076;-68
2022/11/07 02:46:25;;;;;;;3.15;0.65;;;8.20;99.90;;;;;;5008539;28;20018;-67
2022/11/07 02:48:54;;;;;;;1.63;0.75;;;8.20;99.90;;;;;;5020003;28;20032;-67
2022/11/07 02:51:19;;;;;;;2.88;1.23;;;8.20;99.90;;;;;;5018773;28;20659;-66
2022/11/07 02:53:45;;;;;;;2.40;0.90;;;8.20;99.90;;;;;;5013958;28;20028;-66
2022/11/07 02:56:11;;;;;;;9.10;1.33;;;8.10;99.90;;;;;;5008320;28;20117;-66
2022/11/07 02:58:37;;;;;;;10.90;1.48;;;8.10;99.90;;;;;;5006101;28;20029;-68
2022/11/07 03:01:07;;;;;;;1.65;0.88;;;8.00;99.90;;;;;;5005196;28;20499;-67
2022/11/07 03:03:38;;;;;;;5.45;1.52;;;8.00;99.90;;;;;;5010327;28;20495;-67
2022/11/07 03:06:08;;;;;;;6.30;1.52;;;8.00;99.90;;;;;;5013255;28;20088;-67
2022/11/07 03:08:33;;;;;;;3.35;1.13;;;7.90;99.90;;;;;;5013348;28;20033;-67
2022/11/07 03:10:59;;;;;;;2.42;1.05;;;7.90;99.90;;;;;;5020788;28;20026;-68
2022/11/07 03:13:25;;;;;;;3.92;1.27;;;7.90;99.90;;;;;;5004799;28;20026;-68
2022/11/07 03:15:51;;;;;;;2.10;0.82;;;7.90;99.90;;;;;;5008986;28;20423;-67
2022/11/07 03:18:16;;;;;;;4.60;1.33;;;7.80;99.90;;;;;;5011595;28;20018;-66
2022/11/07 03:20:42;;;;;;;2.20;1.10;;;7.80;99.90;;;;;;5008899;28;20034;-65
2022/11/07 03:23:08;;;;;;;4.32;1.30;;;7.80;99.90;;;;;;5005632;28;20026;-68
2022/11/07 03:25:34;;;;;;;4.95;1.42;;;7.80;99.90;;;;;;5016458;28;20026;-68
2022/11/07 03:27:59;;;;;;;5.72;1.50;;;7.80;99.90;;;;;;5021375;28;20022;-68
2022/11/07 03:30:25;;;;;;;4.15;1.20;;;7.80;99.90;;;;;;5015364;28;20435;-67
2022/11/07 03:32:52;;;;;;;4.43;1.27;;;7.80;99.90;;;;;;5012044;28;20097;-68
2022/11/07 03:35:17;;;;;;;6.22;1.48;;;7.80;99.90;;;;;;5012377;28;20546;-67
2022/11/07 03:37:48;;;;;;;3.20;1.00;;;7.80;99.90;;;;;;5018934;28;20017;-67
2022/11/07 03:40:14;;;;;;;3.10;1.50;;;7.80;99.90;;;;;;5016825;28;20025;-68
2022/11/07 03:42:44;;;;;;;6.13;1.83;;;7.80;99.90;;;;;;5011920;28;20369;-67
2022/11/07 03:45:12;;;;;;;7.72;1.90;;;7.80;99.90;;;;;;5014076;28;20097;-67
2022/11/07 03:47:39;;;;;;;7.10;2.10;;;7.90;99.90;;;;;;5006499;28;20578;-68
2022/11/07 03:50:07;;;;;;;12.85;1.90;;;7.90;99.90;;;;;;5004176;28;20029;-67
2022/11/07 03:52:33;;;;;;;6.70;1.75;;;7.90;99.90;;;;;;5010263;28;20410;-68
2022/11/07 03:54:58;;;;;;;9.75;1.70;;;7.90;99.90;;;;;;5002411;28;20023;-68
2022/11/07 03:57:24;;;;;;;4.13;1.60;;;8.00;99.90;;;;;;5007938;28;20458;-67
2022/11/07 03:59:49;;;;;;;10.48;1.20;;;8.00;99.90;;;;;;5005707;28;20033;-69
2022/11/07 04:02:15;;;;;;;4.57;1.45;;;8.00;99.90;;;;;;5011184;28;20054;-66
2022/11/07 04:04:41;;;;;;;9.32;1.70;;;8.00;99.90;;;;;;5013012;28;20113;-68
2022/11/07 04:07:06;;;;;;;9.77;1.60;;;8.10;99.90;;;;;;5008277;28;20026;-68
2022/11/07 04:09:32;;;;;;;6.15;1.63;;;8.10;99.90;;;;;;5012233;28;20411;-67
2022/11/07 04:17:27;;;;;;;3.80;1.30;;;8.10;99.90;;;;;;5005339;28;19921;-64
2022/11/07 04:19:54;;;;;;;7.40;1.48;;;8.10;99.90;;;;;;5007563;28;20026;-65
2022/11/07 04:22:24;;;;;;;6.32;1.75;;;8.00;99.90;;;;;;5000905;28;20022;-64
2022/11/07 04:24:50;;;;;;;9.98;2.03;;;8.00;99.90;;;;;;5007964;28;20022;-64
2022/11/07 04:30:17;;;;;;;8.05;1.85;;;8.00;99.90;;;;;;5009095;28;20129;-64
2022/11/07 04:32:44;;;;;;;3.65;1.38;;;8.00;99.90;;;;;;5005403;28;20026;-64
2022/11/07 04:35:09;;;;;;;5.22;1.70;;;8.00;99.90;;;;;;5016478;28;20034;-65
2022/11/07 04:37:35;;;;;;;5.20;1.60;;;8.00;99.90;;;;;;5005456;28;20117;-65
2022/11/07 04:40:01;;;;;;;4.80;2.22;;;8.00;99.90;;;;;;5003811;28;20025;-64
2022/11/07 04:42:26;;;;;;;5.32;2.20;;;8.00;99.90;;;;;;5010092;28;20563;-64
2022/11/07 04:44:52;;;;;;;3.25;1.48;;;7.90;99.90;;;;;;5011460;28;20029;-64
2022/11/07 04:47:17;;;;;;;4.55;1.60;;;7.90;99.90;;;;;;5021742;28;20026;-65
2022/11/07 04:49:43;;;;;;;7.22;1.50;;;7.80;99.90;;;;;;5011550;28;20026;-65
2022/11/07 04:52:09;;;;;;;7.75;1.50;;;7.80;99.90;;;;;;5004999;28;20034;-65
2022/11/07 04:54:34;;;;;;;9.50;1.83;;;7.80;99.90;;;;;;5011163;28;20397;-64
2022/11/07 04:57:00;;;;;;;5.95;1.65;;;7.70;99.90;;;;;;5009689;28;20022;-64
2022/11/07 04:59:25;;;;;;;7.20;1.55;;;7.80;99.90;;;;;;5010612;28;20399;-64
2022/11/07 05:01:51;;;;;;;4.88;1.48;;;7.70;99.90;;;;;;5018572;28;20029;-65
2022/11/07 05:04:16;;;;;;;8.38;1.95;;;7.70;99.90;;;;;;5010718;28;20061;-64
2022/11/07 05:06:42;;;;;;;6.40;2.38;;;7.70;99.90;;;;;;5006712;28;20031;-64
2022/11/07 05:09:13;;;;;;;6.03;1.52;;;7.70;99.90;;;;;;5008385;28;20541;-64
2022/11/07 05:11:38;;;;;;;4.68;1.90;;;7.70;99.90;;;;;;5003326;28;20032;-64
2022/11/07 05:14:04;;;;;;;5.25;1.30;;;7.70;99.90;;;;;;5015794;28;20406;-65
2022/11/07 05:16:31;;;;;;;3.58;1.48;;;7.70;99.90;;;;;;5010993;28;20156;-64
2022/11/07 05:18:57;;;;;;;6.45;1.55;;;7.70;99.90;;;;;;5007943;28;20024;-65
2022/11/07 05:21:22;;;;;;;8.55;2.00;;;7.70;99.90;;;;;;5006717;28;20104;-64
2022/11/07 05:23:48;;;;;;;6.30;1.85;;;7.70;99.90;;;;;;5008083;28;20030;-64
2022/11/07 05:26:13;;;;;;;11.30;2.22;;;7.70;99.90;;;;;;5009664;28;20038;-64
2022/11/07 05:28:39;;;;;;;4.30;1.33;;;7.70;99.90;;;;;;5012047;28;20029;-64
2022/11/07 05:31:06;;;;;;;7.25;2.05;;;7.60;99.90;;;;;;5008259;28;20029;-65
2022/11/07 05:33:32;;;;;;;13.10;2.92;;;7.70;99.90;;;;;;5005683;28;20060;-64
2022/11/07 05:36:14;;;;;;;6.55;2.30;;;7.70;99.90;;;;;;5010496;28;20068;-64
2022/11/07 05:38:42;;;;;;;7.15;2.95;;;7.70;99.90;;;;;;5010828;28;20025;-65
2022/11/07 05:41:08;;;;;;;12.07;4.15;;;7.80;99.90;;;;;;5015916;28;20024;-64
2022/11/07 05:43:33;;;;;;;14.57;4.60;;;7.80;99.90;;;;;;5007027;28;20034;-64
2022/11/07 05:46:00;;;;;;;24.45;9.73;;;7.90;99.90;;;;;;5008957;28;20096;-64
2022/11/07 05:48:25;;;;;;;21.23;9.10;;;7.90;99.90;;;;;;5009405;28;20037;-64
2022/11/07 05:50:51;;;;;;;18.58;6.05;;;7.90;99.90;;;;;;4953143;28;20092;-64
2022/11/07 05:53:19;;;;;;;11.93;5.05;;;8.00;99.90;;;;;;5008114;28;20034;-64
2022/11/07 05:55:46;;;;;;;7.97;1.75;;;8.00;99.90;;;;;;5011890;28;20387;-64
2022/11/07 05:58:12;;;;;;;5.32;2.10;;;8.10;99.90;;;;;;5020904;28;20053;-65
2022/11/07 06:00:39;;;;;;;7.75;1.73;;;8.20;99.90;;;;;;5003026;28;20709;-64
2022/11/07 06:03:04;;;;;;;12.13;2.20;;;8.30;99.90;;;;;;5015402;28;20507;-65
2022/11/07 06:05:30;;;;;;;14.05;2.10;;;8.40;99.90;;;;;;5014296;28;20033;-65
2022/11/07 06:07:56;;;;;;;13.73;1.65;;;8.40;99.90;;;;;;5014056;28;20040;-64
2022/11/07 06:10:22;;;;;;;9.35;2.30;;;8.60;99.90;;;;;;5007415;28;20037;-64
2022/11/07 06:13:00;;;;;;;9.13;1.60;;;8.60;99.90;;;;;;5004878;28;20456;-64
2022/11/07 06:15:27;;;;;;;9.27;1.42;;;8.70;99.90;;;;;;5004646;28;20030;-64
2022/11/07 06:17:53;;;;;;;8.13;1.90;;;8.70;99.90;;;;;;5017276;28;20026;-64
2022/11/07 06:20:19;;;;;;;16.05;2.47;;;8.80;99.90;;;;;;5008900;28;20022;-65
2022/11/07 06:22:44;;;;;;;8.25;1.80;;;8.90;99.90;;;;;;5009539;28;20022;-65
2022/11/07 06:25:10;;;;;;;13.75;2.00;;;9.00;99.90;;;;;;5008792;28;20483;-64
2022/11/07 06:27:36;;;;;;;5.05;1.23;;;9.00;99.90;;;;;;5004383;28;20017;-64
2022/11/07 06:30:01;;;;;;;7.93;1.65;;;9.10;99.90;;;;;;5004166;28;20495;-64
2022/11/07 06:32:27;;;;;;;6.47;1.50;;;9.10;99.90;;;;;;5007804;28;20038;-64
2022/11/07 06:34:53;;;;;;;4.57;1.02;;;9.20;99.90;;;;;;5011981;28;20459;-63
2022/11/07 06:37:19;;;;;;;4.80;1.65;;;9.30;99.90;;;;;;5012283;28;20057;-65
2022/11/07 06:39:44;;;;;;;7.75;1.20;;;9.40;99.90;;;;;;5010116;28;20033;-65
2022/11/07 06:42:10;;;;;;;8.15;1.40;;;9.40;99.90;;;;;;5007138;28;20025;-64
2022/11/07 06:44:35;;;;;;;7.28;1.35;;;9.50;99.90;;;;;;5009025;28;20026;-64
2022/11/07 06:47:02;;;;;;;9.18;1.42;;;9.50;99.90;;;;;;5021515;28;20606;-65
2022/11/07 06:49:27;;;;;;;6.55;1.40;;;9.60;99.90;;;;;;5005985;28;20051;-64
2022/11/07 06:51:53;;;;;;;4.30;1.17;;;9.70;99.90;;;;;;5020548;28;20022;-64
2022/11/07 06:54:18;;;;;;;5.03;1.05;;;9.80;99.90;;;;;;5022314;28;20030;-65
2022/11/07 06:56:44;;;;;;;10.80;1.60;;;9.90;99.90;;;;;;5020659;28;20428;-65
2022/11/07 06:59:09;;;;;;;4.82;1.88;;;10.00;99.90;;;;;;5020112;28;20034;-65
2022/11/07 07:01:35;;;;;;;11.20;1.40;;;10.00;99.90;;;;;;5010298;28;20041;-64
2022/11/07 07:04:01;;;;;;;5.22;1.63;;;10.10;99.90;;;;;;5011135;28;20022;-65
2022/11/07 07:06:26;;;;;;;11.15;1.75;;;10.10;99.90;;;;;;5014474;28;20109;-65
2022/11/07 07:08:52;;;;;;;7.38;1.42;;;10.20;99.90;;;;;;5014422;28;20032;-64
2022/11/07 07:11:17;;;;;;;6.60;1.38;;;10.30;99.90;;;;;;5010316;28;20426;-64
2022/11/07 07:13:43;;;;;;;7.05;1.80;;;10.30;99.90;;;;;;5010798;28;20042;-64
2022/11/07 07:16:09;;;;;;;6.15;1.90;;;10.40;99.90;;;;;;5009708;28;20076;-64
2022/11/07 07:18:35;;;;;;;5.53;1.50;;;10.50;99.90;;;;;;5018013;28;20525;-64
2022/11/07 07:21:02;;;;;;;8.07;1.75;;;10.50;99.90;;;;;;5016439;28;20061;-65
2022/11/07 07:23:28;;;;;;;10.23;1.73;;;10.60;99.90;;;;;;5008958;28;20071;-65
2022/11/07 07:25:53;;;;;;;4.20;1.58;;;10.60;99.90;;;;;;5009030;28;20488;-65
2022/11/07 07:28:19;;;;;;;4.35;1.30;;;10.60;99.90;;;;;;5009461;28;20040;-64
2022/11/07 07:30:44;;;;;;;6.88;1.20;;;10.60;99.90;;;;;;5009202;28;20021;-64
2022/11/07 07:33:10;;;;;;;4.82;1.77;;;10.70;99.90;;;;;;5010611;28;20101;-64
2022/11/07 07:35:35;;;;;;;6.07;1.38;;;10.70;99.90;;;;;;5010965;28;20057;-65
2022/11/07 07:38:01;;;;;;;9.40;3.88;;;10.80;99.90;;;;;;5012020;28;20427;-64
2022/11/07 07:40:27;;;;;;;5.43;1.20;;;10.80;99.90;;;;;;5003249;28;20415;-64
2022/11/07 07:42:52;;;;;;;14.02;1.40;;;10.90;99.90;;;;;;5008951;28;20014;-65
2022/11/07 07:45:18;;;;;;;8.98;1.63;;;10.90;99.90;;;;;;5010092;28;20025;-64
2022/11/07 07:47:44;;;;;;;5.97;1.60;;;10.90;99.90;;;;;;5011326;28;20477;-64
2022/11/07 07:50:11;;;;;;;13.32;2.08;;;11.00;99.90;;;;;;4991384;28;20068;-64
2022/11/07 07:52:36;;;;;;;8.85;1.45;;;11.10;99.90;;;;;;5014181;28;20025;-64
2022/11/07 07:55:02;;;;;;;7.85;1.60;;;11.10;99.90;;;;;;5007261;28;20048;-65
2022/11/07 07:57:28;;;;;;;9.80;1.70;;;11.20;99.90;;;;;;5009795;28;20033;-65
2022/11/07 07:59:53;;;;;;;7.63;1.48;;;11.30;99.90;;;;;;5008855;28;20099;-64
2022/11/07 08:02:19;;;;;;;7.10;1.52;;;11.30;99.90;;;;;;5009798;28;20026;-64
2022/11/07 08:04:45;;;;;;;6.57;1.20;;;11.40;99.90;;;;;;5009926;28;20592;-64
2022/11/07 08:07:11;;;;;;;14.23;1.85;;;11.40;99.90;;;;;;5015790;28;20041;-65
2022/11/07 08:09:37;;;;;;;8.10;1.63;;;11.40;99.90;;;;;;5009914;28;20053;-64
2022/11/07 08:12:04;;;;;;;8.13;1.50;;;11.40;99.90;;;;;;5011790;28;20061;-65
2022/11/07 08:14:30;;;;;;;13.52;2.67;;;11.40;99.90;;;;;;5004027;28;20038;-65
2022/11/07 08:16:56;;;;;;;7.13;1.48;;;11.50;99.90;;;;;;5019251;28;20033;-64
2022/11/07 08:19:22;;;;;;;2.92;1.13;;;11.60;99.90;;;;;;5025143;28;20088;-64
2022/11/07 08:21:47;;;;;;;10.52;3.20;;;11.70;99.90;;;;;;5007945;28;20026;-64
2022/11/07 08:24:13;;;;;;;10.80;1.92;;;11.80;99.90;;;;;;5004463;28;20033;-64
2022/11/07 08:26:39;;;;;;;11.85;2.45;;;11.80;99.90;;;;;;5011820;28;20026;-65
2022/11/07 08:29:05;;;;;;;10.07;1.80;;;11.80;99.90;;;;;;5011979;28;20034;-65
2022/11/07 08:31:30;;;;;;;8.27;1.77;;;11.90;99.90;;;;;;5016792;28;20033;-65
2022/11/07 08:33:59;;;;;;;7.38;1.77;;;11.90;99.90;;;;;;5022167;28;20083;-65
2022/11/07 08:36:28;;;;;;;7.50;2.08;;;11.80;99.90;;;;;;5007975;28;20021;-65
2022/11/07 08:38:54;;;;;;;6.88;1.38;;;11.80;99.90;;;;;;5008972;28;20049;-65
2022/11/07 08:41:20;;;;;;;5.85;1.75;;;11.80;99.90;;;;;;5005356;28;20419;-64
2022/11/07 08:43:46;;;;;;;8.95;1.50;;;11.70;99.90;;;;;;5007054;28;20097;-64
2022/11/07 08:46:12;;;;;;;11.07;1.63;;;11.70;99.90;;;;;;5016303;28;20087;-62
2022/11/07 08:48:38;;;;;;;7.55;1.02;;;11.70;99.90;;;;;;5010180;28;20022;-62
2022/11/07 08:51:04;;;;;;;7.28;1.83;;;11.70;99.90;;;;;;4999620;28;20053;-63
2022/11/07 08:53:31;;;;;;;7.07;1.90;;;11.70;99.90;;;;;;5008594;28;20021;-63
2022/11/07 08:56:07;;;;;;;5.07;1.20;;;11.80;99.90;;;;;;5007041;28;20458;-62
2022/11/07 08:58:35;;;;;;;4.03;1.40;;;11.90;99.90;;;;;;5008312;28;20025;-63
2022/11/07 09:01:03;;;;;;;3.25;1.52;;;12.00;99.90;;;;;;5006669;28;20022;-63
2022/11/07 09:03:29;;;;;;;7.35;1.58;;;12.10;99.90;;;;;;5010524;28;20022;-63
2022/11/07 09:05:56;;;;;;;3.88;1.30;;;12.10;99.90;;;;;;5012009;28;20037;-63
2022/11/07 09:08:22;;;;;;;8.57;2.70;;;12.20;99.90;;;;;;5011224;28;20034;-62
2022/11/07 09:10:47;;;;;;;8.98;3.50;;;12.30;99.90;;;;;;5011643;28;20108;-62
2022/11/07 09:13:13;;;;;;;13.38;3.58;;;12.30;99.90;;;;;;5008870;28;20037;-63
2022/11/07 09:15:39;;;;;;;24.17;10.82;;;12.30;99.90;;;;;;5004637;28;20463;-62
2022/11/07 09:18:05;;;;;;;20.98;9.35;;;12.30;99.90;;;;;;5009704;28;20036;-63
2022/11/07 09:20:32;;;;;;;7.22;3.28;;;12.40;99.90;;;;;;5015056;28;20034;-63
2022/11/07 09:22:58;;;;;;;8.60;1.98;;;12.40;99.90;;;;;;5013655;28;20373;-63
2022/11/07 09:25:24;;;;;;;11.38;5.85;;;12.50;99.90;;;;;;5007378;28;20039;-63
2022/11/07 09:27:54;;;;;;;11.10;3.53;;;12.50;99.90;;;;;;5016044;28;20024;-65
2022/11/07 09:30:20;;;;;;;14.48;4.25;;;12.60;99.90;;;;;;5016531;28;20026;-65
2022/11/07 09:32:45;;;;;;;11.98;3.20;;;12.60;99.90;;;;;;5008315;28;20029;-65
2022/11/07 09:35:12;;;;;;;5.22;1.67;;;12.60;99.90;;;;;;5003553;28;20041;-65
2022/11/07 09:37:39;;;;;;;5.65;1.85;;;12.60;99.90;;;;;;5003661;28;20080;-65
2022/11/07 09:40:12;;;;;;;8.00;1.67;;;12.60;99.90;;;;;;4978292;28;20046;-65
2022/11/07 09:42:59;;;;;;;11.63;3.13;;;12.60;99.90;;;;;;5017706;28;20021;-64
2022/11/07 09:45:27;;;;;;;4.60;2.25;;;12.50;99.90;;;;;;5006858;28;20033;-65
2022/11/07 09:47:58;;;;;;;14.40;2.63;;;12.60;99.90;;;;;;5011455;28;20033;-64
2022/11/07 09:50:39;;;;;;;8.32;2.67;;;12.50;99.90;;;;;;4998812;28;20085;-65
2022/11/07 09:53:26;;;;;;;8.13;3.85;;;12.70;99.90;;;;;;5008951;28;20116;-65
2022/11/07 09:55:58;;;;;;;7.70;3.42;;;12.80;99.90;;;;;;5008582;28;20121;-62
2022/11/07 09:58:35;;;;;;;5.28;1.63;;;12.80;99.90;;;;;;5010937;28;20657;-63
2022/11/07 10:01:06;;;;;;;4.10;1.75;;;12.90;99.90;;;;;;5006291;28;20025;-63
2022/11/07 10:03:36;;;;;;;5.20;1.77;;;13.00;99.90;;;;;;5004399;28;20045;-63
2022/11/07 10:06:23;;;;;;;4.45;1.80;;;13.20;99.90;;;;;;5001836;28;20107;-63
2022/11/07 10:08:56;;;;;;;14.85;5.35;;;13.30;99.90;;;;;;5002799;28;20392;-63
2022/11/07 10:11:36;;;;;;;5.22;2.17;;;13.40;99.90;;;;;;5002519;28;20034;-63
2022/11/07 10:14:10;;;;;;;6.80;2.25;;;13.50;99.90;;;;;;5018110;28;20040;-63
2022/11/07 10:16:35;;;;;;;;;;;13.50;99.90;;;;;;5016511;28;20018;-63
2022/11/07 10:19:25;;;;;;;5.65;1.50;;;13.50;99.90;;;;;;5015204;28;19971;-63
2022/11/07 10:22:21;;;;;;;2.50;1.45;;;13.60;99.90;;;;;;5008630;28;20026;-63
2022/11/07 10:25:12;;;;;;;4.07;1.50;;;13.60;99.90;;;;;;5008157;28;20049;-63
2022/11/07 10:27:39;;;;;;;7.70;2.78;;;13.60;99.90;;;;;;5002474;28;20524;-63
2022/11/07 10:30:17;;;;;;;7.47;3.58;;;13.50;99.90;;;;;;5016151;28;20515;-63
2022/11/07 10:33:14;;;;;;;13.00;3.08;;;13.60;99.90;;;;;;5012362;28;20399;-63
2022/11/07 10:35:46;;;;;;;12.80;5.57;;;13.60;99.90;;;;;;5012278;28;20052;-63
2022/11/07 10:38:28;;;;;;;4.38;1.88;;;13.60;99.90;;;;;;5011548;28;20103;-62
2022/11/07 10:40:54;;;;;;;3.78;1.58;;;13.70;99.90;;;;;;5009564;28;20018;-63
2022/11/07 10:43:33;;;;;;;9.10;1.75;;;13.70;99.90;;;;;;5011689;28;20690;-63
2022/11/07 10:46:02;;;;;;;3.67;1.27;;;13.80;99.90;;;;;;5005218;28;20056;-63
2022/11/07 10:48:30;;;;;;;6.50;2.05;;;13.90;99.90;;;;;;5024107;28;20022;-63
2022/11/07 10:50:56;;;;;;;3.80;1.13;;;13.90;99.90;;;;;;4993319;28;20053;-63
2022/11/07 10:53:24;;;;;;;5.25;1.40;;;13.80;99.90;;;;;;5016189;28;20088;-63
2022/11/07 10:55:52;;;;;;;2.85;1.23;;;13.90;99.90;;;;;;5010378;28;20029;-63
2022/11/07 10:58:28;;;;;;;9.40;3.35;;;13.90;99.90;;;;;;5007668;28;20058;-63
2022/11/07 11:00:57;;;;;;;7.90;3.53;;;13.90;99.90;;;;;;5007711;28;20021;-63
2022/11/07 11:03:29;;;;;;;3.58;1.65;;;14.00;99.90;;;;;;5011185;28;20046;-63
2022/11/07 11:05:55;;;;;;;4.43;2.13;;;14.20;99.90;;;;;;5019973;28;20033;-63
2022/11/07 11:08:26;;;;;;;2.20;1.25;;;14.30;99.90;;;;;;5012016;28;20030;-62
2022/11/07 11:10:51;;;;;;;7.53;2.25;;;14.40;99.90;;;;;;5021056;28;20120;-63
2022/11/07 11:13:27;;;;;;;3.53;1.40;;;14.50;99.90;;;;;;5009892;28;20070;-63
2022/11/07 11:15:55;;;;;;;5.50;2.03;;;14.60;99.90;;;;;;5017570;28;20527;-63
2022/11/07 11:18:21;;;;;;;3.50;2.00;;;14.70;99.90;;;;;;5017962;28;20144;-63
2022/11/07 11:21:01;;;;;;;4.75;2.63;;;14.70;99.90;;;;;;5019222;28;20018;-63
2022/11/07 11:23:35;;;;;;;2.30;1.05;;;14.70;99.90;;;;;;5015543;28;20030;-63
2022/11/07 11:26:04;;;;;;;;;;;14.80;99.90;;;;;;5012136;28;20593;-63
2022/11/07 11:28:32;;;;;;;1.13;0.90;;;14.80;99.90;;;;;;5015439;28;20287;-64
2022/11/07 11:31:05;;;;;;;4.90;0.90;;;14.90;99.90;;;;;;5010600;28;20028;-63
2022/11/07 11:33:46;;;;;;;2.40;1.10;;;14.90;99.90;;;;;;5010693;28;20107;-63
2022/11/07 11:36:24;;;;;;;6.85;1.20;;;14.90;99.90;;;;;;5013531;28;20033;-62
2022/11/07 11:38:54;;;;;;;0.82;0.77;;;14.90;99.90;;;;;;5008904;28;20033;-64
2022/11/07 11:41:49;;;;;;;6.40;0.88;;;15.00;99.90;;;;;;5017692;28;20037;-63
2022/11/07 11:44:14;;;;;;;;;;;15.00;99.90;;;;;;5008701;28;20045;-63
2022/11/07 11:47:05;;;;;;;4.10;1.95;;;14.80;99.90;;;;;;5007590;28;19909;-63
2022/11/07 11:49:57;;;;;;;3.83;1.73;;;14.80;99.90;;;;;;5021119;28;20030;-62
2022/11/07 11:52:24;;;;;;;1.42;0.77;;;14.70;99.90;;;;;;4989674;28;20141;-63
2022/11/07 11:54:51;;;;;;;1.45;1.30;;;14.60;99.90;;;;;;5009253;28;21298;-63
2022/11/07 11:57:31;;;;;;;16.63;5.40;;;14.60;99.90;;;;;;5008282;28;20105;-63
2022/11/07 12:00:00;;;;;;;53.63;17.55;;;14.60;99.90;;;;;;5020478;28;20037;-63
2022/11/07 12:02:31;;;;;;;19.48;6.80;;;14.80;99.90;;;;;;5020652;28;20079;-63
2022/11/07 12:05:40;;;;;;;12.45;4.88;;;15.10;99.90;;;;;;5021579;28;20116;-64
2022/11/07 12:08:24;;;;;;;17.92;6.30;;;15.20;99.90;;;;;;5008777;28;20129;-64
2022/11/07 12:11:01;;;;;;;10.95;5.40;;;15.30;99.90;;;;;;5003736;28;20030;-63
2022/11/07 12:13:30;;;;;;;6.35;3.65;;;15.20;99.90;;;;;;5000559;28;20042;-63
2022/11/07 12:16:04;;;;;;;12.45;5.18;;;15.20;99.90;;;;;;5011639;28;20030;-63
2022/11/07 12:18:41;;;;;;;18.42;6.93;;;15.20;99.90;;;;;;5013361;28;20068;-63
2022/11/07 12:21:21;;;;;;;5.65;3.30;;;15.10;99.90;;;;;;4977335;28;20050;-62
2022/11/07 12:24:21;;;;;;;8.82;4.57;;;14.90;99.90;;;;;;5002405;28;20014;-64
2022/11/07 12:26:50;;;;;;;10.05;4.32;;;14.80;99.90;;;;;;5005780;28;20053;-63
2022/11/07 12:29:55;;;;;;;7.65;3.08;;;14.80;99.90;;;;;;5007252;28;20533;-63
2022/11/07 12:32:47;;;;;;;19.95;8.63;;;14.80;99.90;;;;;;5009523;28;20041;-63
2022/11/07 12:35:36;;;;;;;33.25;15.38;;;14.90;99.90;;;;;;5015436;28;20080;-63
2022/11/07 12:38:28;;;;;;;15.35;7.40;;;14.90;99.90;;;;;;5017635;28;20030;-63
2022/11/07 12:41:25;;;;;;;18.60;7.28;;;15.00;99.90;;;;;;5003211;28;20483;-62
2022/11/07 12:44:11;;;;;;;14.90;5.82;;;14.90;99.90;;;;;;5001629;28;20036;-63
2022/11/07 12:46:52;;;;;;;10.55;3.95;;;14.90;99.90;;;;;;4993163;28;20043;-64
2022/11/07 12:49:44;;;;;;;3.45;1.80;;;14.90;99.90;;;;;;5004085;28;20399;-63
2022/11/07 12:52:31;;;;;;;10.18;5.53;;;14.80;99.90;;;;;;5001526;28;20125;-63
2022/11/07 12:55:19;;;;;;;7.30;3.20;;;14.80;99.90;;;;;;5003415;28;20021;-62
2022/11/07 12:57:47;;;;;;;9.93;3.40;;;14.90;99.90;;;;;;5001793;28;20744;-63
2022/11/07 13:00:20;;;;;;;6.22;2.35;;;14.80;99.90;;;;;;5006344;28;20057;-62
2022/11/07 13:03:04;;;;;;;8.88;3.70;;;14.90;99.90;;;;;;5016500;28;20014;-63
2022/11/07 13:05:54;;;;;;;5.78;2.35;;;14.90;99.90;;;;;;5014069;28;20500;-62
2022/11/07 13:08:25;;;;;;;7.38;3.80;;;14.80;99.90;;;;;;4974056;28;20046;-62
2022/11/07 13:11:11;;;;;;;8.50;4.28;;;14.80;99.90;;;;;;5012370;28;20510;-63
2022/11/07 13:13:58;;;;;;;5.03;2.92;;;14.80;99.90;;;;;;5002266;28;20504;-62